createdAt,value
2023-05-25T00:01:29.266Z,9.60
2023-05-25T00:03:56.975Z,12.90
2023-05-25T00:08:59.789Z,14.40
2023-05-25T00:11:27.760Z,12.20
2023-05-25T00:13:55.790Z,10.70
2023-05-25T00:16:23.439Z,10.00
2023-05-25T00:18:51.229Z,9.10
2023-05-25T00:21:20.714Z,10.60
2023-05-25T00:23:48.371Z,10.60
2023-05-25T00:26:16.036Z,11.30
2023-05-25T00:28:43.714Z,11.00
2023-05-25T00:31:11.989Z,9.40
2023-05-25T00:33:39.708Z,12.80
2023-05-25T00:36:09.039Z,8.80
2023-05-25T00:38:37.412Z,13.00
2023-05-25T00:41:06.430Z,9.50
2023-05-25T00:43:34.095Z,12.60
2023-05-25T00:46:01.875Z,13.50
2023-05-25T00:48:29.630Z,9.80
2023-05-25T00:51:00.153Z,9.80
2023-05-25T00:53:28.022Z,9.70
2023-05-25T00:56:16.048Z,10.70
2023-05-25T00:58:43.861Z,8.50
2023-05-25T01:01:12.139Z,10.60
2023-05-25T01:03:45.972Z,9.70
2023-05-25T01:06:15.396Z,12.10
2023-05-25T01:08:46.957Z,10.30
2023-05-25T01:11:16.602Z,8.90
2023-05-25T01:13:45.211Z,8.20
2023-05-25T01:16:13.013Z,9.40
2023-05-25T01:18:43.188Z,10.80
2023-05-25T01:21:18.429Z,11.10
2023-05-25T01:23:49.152Z,11.00
2023-05-25T01:26:17.216Z,12.10
2023-05-25T01:28:48.496Z,11.30
2023-05-25T01:31:16.592Z,9.30
2023-05-25T01:33:44.855Z,11.00
2023-05-25T01:36:12.470Z,10.00
2023-05-25T01:38:40.144Z,9.60
2023-05-25T01:41:07.870Z,8.60
2023-05-25T01:43:35.678Z,13.20
2023-05-25T01:46:19.159Z,10.70
2023-05-25T01:49:45.757Z,10.00
2023-05-25T01:52:22.058Z,10.10
2023-05-25T01:55:09.166Z,9.40
2023-05-25T01:57:39.118Z,10.90
2023-05-25T02:00:08.092Z,9.50
2023-05-25T02:02:43.340Z,9.80
2023-05-25T02:05:11.947Z,10.50
2023-05-25T02:07:39.651Z,12.10
2023-05-25T02:10:08.338Z,12.90
2023-05-25T02:12:36.108Z,11.90
2023-05-25T02:15:04.864Z,12.20
2023-05-25T02:17:32.532Z,13.60
2023-05-25T02:20:00.349Z,14.30
2023-05-25T02:22:28.272Z,12.70
2023-05-25T02:24:56.030Z,15.30
2023-05-25T02:27:23.637Z,17.60
2023-05-25T02:29:53.410Z,14.20
2023-05-25T02:32:21.544Z,14.00
2023-05-25T02:34:49.317Z,13.50
2023-05-25T02:37:18.114Z,12.60
2023-05-25T02:39:46.008Z,11.60
2023-05-25T02:42:13.853Z,11.50
2023-05-25T02:44:48.428Z,11.80
2023-05-25T02:47:16.834Z,11.80
2023-05-25T02:49:45.732Z,9.90
2023-05-25T02:52:13.568Z,10.50
2023-05-25T02:54:42.224Z,11.80
2023-05-25T02:57:10.566Z,12.80
2023-05-25T02:59:38.448Z,12.10
2023-05-25T03:02:06.504Z,12.30
2023-05-25T03:04:37.781Z,10.90
2023-05-25T03:07:05.636Z,10.50
2023-05-25T03:09:33.723Z,11.40
2023-05-25T03:12:02.910Z,9.90
2023-05-25T03:14:30.720Z,10.70
2023-05-25T03:17:03.862Z,11.80
2023-05-25T03:19:32.659Z,9.80
2023-05-25T03:22:00.791Z,10.40
2023-05-25T03:24:29.107Z,11.10
2023-05-25T03:26:58.963Z,9.30
2023-05-25T03:29:27.306Z,11.70
2023-05-25T03:31:55.071Z,10.10
2023-05-25T03:34:24.930Z,8.80
2023-05-25T03:36:54.517Z,11.90
2023-05-25T03:39:22.575Z,10.30
2023-05-25T03:41:51.477Z,10.50
2023-05-25T03:44:19.237Z,10.30
2023-05-25T03:46:47.311Z,11.80
2023-05-25T03:49:15.177Z,12.00
2023-05-25T03:51:42.853Z,10.40
2023-05-25T03:54:10.652Z,11.20
2023-05-25T03:56:38.412Z,11.00
2023-05-25T03:59:06.400Z,11.20
2023-05-25T04:01:34.169Z,10.00
2023-05-25T04:04:03.363Z,10.80
2023-05-25T04:06:31.121Z,11.80
2023-05-25T04:08:58.744Z,10.00
2023-05-25T04:11:27.806Z,12.00
2023-05-25T04:13:55.494Z,13.50
2023-05-25T04:16:26.410Z,10.80
2023-05-25T04:18:54.124Z,11.80
2023-05-25T04:21:22.385Z,10.90
2023-05-25T04:23:50.925Z,13.70
2023-05-25T04:26:18.667Z,10.20
2023-05-25T04:28:48.505Z,12.80
2023-05-25T04:31:46.467Z,13.40
2023-05-25T04:34:15.452Z,12.90
2023-05-25T04:36:51.170Z,14.90
2023-05-25T04:39:18.972Z,14.00
2023-05-25T04:41:53.397Z,15.90
2023-05-25T04:44:21.230Z,13.30
2023-05-25T04:46:52.864Z,14.00
2023-05-25T04:49:29.548Z,13.00
2023-05-25T04:51:57.365Z,14.10
2023-05-25T04:54:25.923Z,13.40
2023-05-25T04:56:53.862Z,13.80
2023-05-25T04:59:22.123Z,12.50
2023-05-25T05:01:49.903Z,15.80
2023-05-25T05:04:18.554Z,14.10
2023-05-25T05:06:46.425Z,10.90
2023-05-25T05:09:22.356Z,12.70
2023-05-25T05:11:50.269Z,7.80
2023-05-25T05:14:19.371Z,8.80
2023-05-25T05:16:48.455Z,9.40
2023-05-25T05:19:16.592Z,8.50
2023-05-25T05:21:44.620Z,8.40
2023-05-25T05:24:12.826Z,8.50
2023-05-25T05:26:55.775Z,11.10
2023-05-25T05:29:29.587Z,8.00
2023-05-25T05:31:57.911Z,10.70
2023-05-25T05:34:26.709Z,10.10
2023-05-25T05:36:58.224Z,16.40
2023-05-25T05:39:28.240Z,17.90
2023-05-25T05:41:56.208Z,11.20
2023-05-25T05:44:27.872Z,11.20
2023-05-25T05:47:01.315Z,8.80
2023-05-25T05:49:30.952Z,10.80
2023-05-25T05:51:59.629Z,11.80
2023-05-25T05:54:28.377Z,11.70
2023-05-25T05:56:58.357Z,10.90
2023-05-25T05:59:26.890Z,11.90
2023-05-25T06:01:54.724Z,11.60
2023-05-25T06:04:25.627Z,11.20
2023-05-25T06:06:53.401Z,13.70
2023-05-25T06:09:21.282Z,11.00
2023-05-25T06:11:49.118Z,12.40
2023-05-25T06:14:18.207Z,13.00
2023-05-25T06:16:46.128Z,13.70
2023-05-25T06:19:14.774Z,14.80
2023-05-25T06:21:42.874Z,15.00
2023-05-25T06:24:10.915Z,12.10
2023-05-25T06:26:38.887Z,12.70
2023-05-25T06:29:06.619Z,14.00
2023-05-25T06:31:34.356Z,13.90
2023-05-25T06:34:02.022Z,15.60
2023-05-25T06:36:29.755Z,14.60
2023-05-25T06:38:57.451Z,13.80
2023-05-25T06:41:25.117Z,13.40
2023-05-25T06:43:52.917Z,13.70
2023-05-25T06:46:30.699Z,13.10
2023-05-25T06:49:01.350Z,13.80
2023-05-25T06:51:29.230Z,14.50
2023-05-25T06:53:57.295Z,12.10
2023-05-25T06:56:25.028Z,13.00
2023-05-25T06:58:52.671Z,14.40
2023-05-25T07:01:20.410Z,15.80
2023-05-25T07:03:48.193Z,12.50
2023-05-25T07:06:17.343Z,11.80
2023-05-25T07:08:45.092Z,14.40
2023-05-25T07:11:14.424Z,14.10
2023-05-25T07:13:42.128Z,12.60
2023-05-25T07:16:09.901Z,13.90
2023-05-25T07:18:41.124Z,13.70
2023-05-25T07:21:11.657Z,12.70
2023-05-25T07:23:41.287Z,10.90
2023-05-25T07:26:09.173Z,14.20
2023-05-25T07:28:36.969Z,11.10
2023-05-25T07:31:04.714Z,13.70
2023-05-25T07:33:32.385Z,10.10
2023-05-25T07:36:00.091Z,10.20
2023-05-25T07:38:27.846Z,13.40
2023-05-25T07:40:55.592Z,10.90
2023-05-25T07:43:23.794Z,12.40
2023-05-25T07:45:51.495Z,9.60
2023-05-25T07:48:19.128Z,8.00
2023-05-25T07:50:47.050Z,9.80
2023-05-25T07:53:14.872Z,11.40
2023-05-25T07:55:42.610Z,10.70
2023-05-25T07:58:10.515Z,8.50
2023-05-25T08:00:38.234Z,11.10
2023-05-25T08:03:06.201Z,11.10
2023-05-25T08:05:34.177Z,11.50
2023-05-25T08:08:02.024Z,10.10
2023-05-25T08:10:32.594Z,11.30
2023-05-25T08:13:00.526Z,8.70
2023-05-25T08:15:28.697Z,11.50
2023-05-25T08:17:56.963Z,9.40
2023-05-25T08:20:26.168Z,9.60
2023-05-25T08:22:54.858Z,9.50
2023-05-25T08:25:22.714Z,9.90
2023-05-25T08:27:50.576Z,9.60
2023-05-25T08:30:18.362Z,12.00
2023-05-25T08:32:46.575Z,10.80
2023-05-25T08:35:14.522Z,8.50
2023-05-25T08:37:43.758Z,10.30
2023-05-25T08:40:16.474Z,10.00
2023-05-25T08:45:26.505Z,9.60
2023-05-25T08:48:01.311Z,12.70
2023-05-25T08:50:29.268Z,13.50
2023-05-25T08:52:57.075Z,12.00
2023-05-25T08:55:24.869Z,12.80
2023-05-25T08:58:01.393Z,10.70
2023-05-25T09:00:32.399Z,12.60
2023-05-25T09:03:08.303Z,13.10
2023-05-25T09:05:37.930Z,10.90
2023-05-25T09:08:07.129Z,10.70
2023-05-25T09:10:35.160Z,12.20
2023-05-25T09:13:16.706Z,12.20
2023-05-25T09:15:49.341Z,14.00
2023-05-25T09:18:17.362Z,10.90
2023-05-25T09:20:47.016Z,15.20
2023-05-25T09:30:50.649Z,10.60
2023-05-25T09:33:18.620Z,12.00
2023-05-25T09:35:46.886Z,15.10
2023-05-25T09:38:16.085Z,9.90
2023-05-25T09:40:44.619Z,9.10
2023-05-25T09:43:21.956Z,10.40
2023-05-25T09:45:56.732Z,10.00
2023-05-25T09:48:24.607Z,9.30
2023-05-25T09:50:53.150Z,10.00
2023-05-25T09:53:21.403Z,10.10
2023-05-25T09:55:54.242Z,8.60
2023-05-25T09:58:24.109Z,10.90
2023-05-25T10:00:55.685Z,10.50
2023-05-25T10:03:23.783Z,7.30
2023-05-25T10:05:52.344Z,11.40
2023-05-25T10:08:20.418Z,9.30
2023-05-25T10:10:50.348Z,9.60
2023-05-25T10:13:23.191Z,8.10
2023-05-25T10:15:53.171Z,8.90
2023-05-25T10:18:25.963Z,8.10
2023-05-25T10:20:57.765Z,7.50
2023-05-25T10:23:25.905Z,6.40
2023-05-25T10:25:55.450Z,6.30
2023-05-25T10:28:31.401Z,8.50
2023-05-25T10:30:59.391Z,5.90
2023-05-25T10:33:27.296Z,7.90
2023-05-25T10:36:03.015Z,4.90
2023-05-25T10:38:39.856Z,5.80
2023-05-25T10:41:10.008Z,3.90
2023-05-25T10:43:41.414Z,6.60
2023-05-25T10:46:09.459Z,4.60
2023-05-25T10:48:38.805Z,3.60
2023-05-25T10:51:09.063Z,4.60
2023-05-25T10:53:38.030Z,4.10
2023-05-25T10:56:07.599Z,3.90
2023-05-25T10:58:35.467Z,6.20
2023-05-25T11:01:07.161Z,5.50
2023-05-25T11:03:44.720Z,5.50
2023-05-25T11:06:15.658Z,4.50
2023-05-25T11:08:51.384Z,3.80
2023-05-25T11:11:19.347Z,6.50
2023-05-25T11:13:48.975Z,6.00
2023-05-25T11:16:36.374Z,5.10
2023-05-25T11:19:04.278Z,5.40
2023-05-25T11:21:42.891Z,5.50
2023-05-25T11:24:15.534Z,5.10
2023-05-25T11:27:02.228Z,5.60
2023-05-25T11:29:33.339Z,3.20
2023-05-25T11:32:01.547Z,4.00
2023-05-25T11:34:30.573Z,7.70
2023-05-25T11:37:02.409Z,4.40
2023-05-25T11:39:31.880Z,3.50
2023-05-25T11:42:04.570Z,3.70
2023-05-25T11:47:09.144Z,5.10
2023-05-25T11:49:46.368Z,5.60
2023-05-25T11:52:15.212Z,7.10
2023-05-25T11:54:43.324Z,5.80
2023-05-25T11:57:19.918Z,5.50
2023-05-25T11:59:52.326Z,6.50
2023-05-25T12:02:20.943Z,8.40
2023-05-25T12:05:00.310Z,5.70
2023-05-25T12:07:29.005Z,7.10
2023-05-25T12:10:09.999Z,6.30
2023-05-25T12:12:48.819Z,5.20
2023-05-25T12:15:23.903Z,7.00
2023-05-25T12:17:52.773Z,6.80
2023-05-25T12:20:20.922Z,5.60
2023-05-25T12:22:49.112Z,5.90
2023-05-25T12:26:50.867Z,7.10
2023-05-25T12:29:18.840Z,8.80
2023-05-25T12:31:46.907Z,9.20
2023-05-25T12:34:16.021Z,7.20
2023-05-25T12:36:49.230Z,7.40
2023-05-25T12:39:18.794Z,7.70
2023-05-25T12:41:54.815Z,8.70
2023-05-25T12:44:26.202Z,7.60
2023-05-25T12:46:55.488Z,8.50
2023-05-25T12:49:27.342Z,7.20
2023-05-25T12:51:55.423Z,8.20
2023-05-25T12:54:41.322Z,7.00
2023-05-25T12:57:10.038Z,7.40
2023-05-25T12:59:38.203Z,8.20
2023-05-25T13:02:07.546Z,6.20
2023-05-25T13:04:36.527Z,6.80
2023-05-25T13:07:05.098Z,7.70
2023-05-25T13:09:33.537Z,6.90
2023-05-25T13:12:02.544Z,6.50
2023-05-25T13:14:30.467Z,6.60
2023-05-25T13:16:58.300Z,7.20
2023-05-25T13:19:26.229Z,7.30
2023-05-25T13:21:56.103Z,7.20
2023-05-25T13:24:24.584Z,7.40
2023-05-25T13:26:52.351Z,6.40
2023-05-25T13:29:20.155Z,7.20
2023-05-25T13:31:48.442Z,5.40
2023-05-25T13:34:16.266Z,5.80
2023-05-25T13:36:44.041Z,7.50
2023-05-25T13:39:13.942Z,5.20
2023-05-25T13:41:42.120Z,7.30
2023-05-25T13:44:11.375Z,6.00
2023-05-25T13:46:39.234Z,6.30
2023-05-25T13:49:07.161Z,7.70
2023-05-25T13:51:36.007Z,8.10
2023-05-25T13:54:03.800Z,6.90
2023-05-25T13:56:31.491Z,8.00
2023-05-25T13:58:59.141Z,7.10
2023-05-25T14:01:29.627Z,6.30
2023-05-25T14:03:58.509Z,8.30
2023-05-25T14:06:26.242Z,5.90
2023-05-25T14:08:54.177Z,5.60
2023-05-25T14:11:28.148Z,6.40
2023-05-25T14:13:56.585Z,6.80
2023-05-25T14:16:24.404Z,5.80
2023-05-25T14:18:52.138Z,6.40
2023-05-25T14:21:19.928Z,7.40
2023-05-25T14:23:47.549Z,6.80
2023-05-25T14:26:15.302Z,6.50
2023-05-25T14:28:42.941Z,6.80
2023-05-25T14:31:12.627Z,6.40
2023-05-25T14:33:42.849Z,6.00
2023-05-25T14:36:11.162Z,4.90
2023-05-25T14:38:38.822Z,5.10
2023-05-25T14:41:06.534Z,5.60
2023-05-25T14:43:35.262Z,5.30
2023-05-25T14:46:03.103Z,5.50
2023-05-25T14:48:30.919Z,5.90
2023-05-25T14:51:00.422Z,8.60
2023-05-25T14:53:28.122Z,5.40
2023-05-25T14:55:55.902Z,6.00
2023-05-25T14:58:23.633Z,5.40
2023-05-25T15:00:52.218Z,6.10
2023-05-25T15:03:20.124Z,6.80
2023-05-25T15:05:47.847Z,6.70
2023-05-25T15:08:15.700Z,5.30
2023-05-25T15:10:43.502Z,6.00
2023-05-25T15:13:13.182Z,5.40
2023-05-25T15:15:42.027Z,5.30
2023-05-25T15:18:09.901Z,4.70
2023-05-25T15:20:37.661Z,5.50
2023-05-25T15:23:05.493Z,5.80
2023-05-25T15:25:35.462Z,5.60
2023-05-25T15:28:03.891Z,5.40
2023-05-25T15:30:33.435Z,5.40
2023-05-25T15:33:02.114Z,5.80
2023-05-25T15:35:32.890Z,6.10
2023-05-25T15:38:00.710Z,6.20
2023-05-25T15:40:28.420Z,7.10
2023-05-25T15:42:56.679Z,5.90
2023-05-25T15:45:25.334Z,6.40
2023-05-25T15:47:53.202Z,7.70
2023-05-25T15:50:21.157Z,6.50
2023-05-25T15:52:48.844Z,5.60
2023-05-25T15:55:16.539Z,6.80
2023-05-25T15:57:44.248Z,6.20
2023-05-25T16:00:12.912Z,7.10
2023-05-25T16:02:41.002Z,6.30
2023-05-25T16:05:09.999Z,8.90
2023-05-25T16:07:37.652Z,6.80
2023-05-25T16:10:06.114Z,7.70
2023-05-25T16:12:33.760Z,7.20
2023-05-25T16:15:01.589Z,7.00
2023-05-25T16:17:30.147Z,7.00
2023-05-25T16:19:58.082Z,5.70
2023-05-25T16:22:26.008Z,7.60
2023-05-25T16:24:53.730Z,8.90
2023-05-25T16:27:21.475Z,5.80
2023-05-25T16:29:49.175Z,6.00
2023-05-25T16:32:16.964Z,5.20
2023-05-25T16:34:44.859Z,6.50
2023-05-25T16:37:12.590Z,5.00
2023-05-25T16:39:40.248Z,5.50
2023-05-25T16:42:08.108Z,5.50
2023-05-25T16:44:36.171Z,5.50
2023-05-25T16:47:04.014Z,6.20
2023-05-25T16:49:31.664Z,5.60
2023-05-25T16:51:59.410Z,5.70
2023-05-25T16:54:27.103Z,5.50
2023-05-25T16:56:54.757Z,5.10
2023-05-25T16:59:22.405Z,5.90
2023-05-25T17:01:50.243Z,6.30
2023-05-25T17:04:17.988Z,6.40
2023-05-25T17:06:45.693Z,5.80
2023-05-25T17:09:13.392Z,6.20
2023-05-25T17:11:41.048Z,6.50
2023-05-25T17:14:09.062Z,6.50
2023-05-25T17:16:36.929Z,5.00
2023-05-25T17:19:05.194Z,6.90
2023-05-25T17:21:32.954Z,5.10
2023-05-25T17:24:00.908Z,6.70
2023-05-25T17:26:28.561Z,5.20
2023-05-25T17:28:59.333Z,6.60
2023-05-25T17:31:28.174Z,6.50
2023-05-25T17:33:56.393Z,5.70
2023-05-25T17:36:24.235Z,7.00
2023-05-25T17:38:51.963Z,6.50
2023-05-25T17:41:19.732Z,5.80
2023-05-25T17:43:47.418Z,6.00
2023-05-25T17:46:15.911Z,5.10
2023-05-25T17:48:43.662Z,8.00
2023-05-25T17:51:11.300Z,5.90
2023-05-25T17:53:39.048Z,6.40
2023-05-25T17:56:06.886Z,6.20
2023-05-25T17:58:34.513Z,6.10
2023-05-25T18:01:02.337Z,6.70
2023-05-25T18:03:30.302Z,7.60
2023-05-25T18:05:59.274Z,6.10
2023-05-25T18:08:27.004Z,7.80
2023-05-25T18:10:54.711Z,7.60
2023-05-25T18:13:22.490Z,7.20
2023-05-25T18:15:50.160Z,7.20
2023-05-25T18:18:20.936Z,6.40
2023-05-25T18:20:48.612Z,6.80
2023-05-25T18:23:16.564Z,8.30
2023-05-25T18:25:44.689Z,6.40
2023-05-25T18:28:15.341Z,7.90
2023-05-25T18:30:43.351Z,7.90
2023-05-25T18:33:11.206Z,6.50
2023-05-25T18:35:38.995Z,7.60
2023-05-25T18:38:09.640Z,7.40
2023-05-25T18:40:37.315Z,6.80
2023-05-25T18:43:06.141Z,5.90
2023-05-25T18:45:34.053Z,8.00
2023-05-25T18:48:07.785Z,9.20
2023-05-25T18:50:36.159Z,7.70
2023-05-25T18:53:10.179Z,6.70
2023-05-25T18:55:39.568Z,5.90
2023-05-25T18:58:07.367Z,7.30
2023-05-25T19:00:35.103Z,7.70
2023-05-25T19:03:03.051Z,6.00
2023-05-25T19:05:31.085Z,8.50
2023-05-25T19:08:00.053Z,6.80
2023-05-25T19:10:28.005Z,8.70
2023-05-25T19:12:55.877Z,7.80
2023-05-25T19:15:23.671Z,7.20
2023-05-25T19:17:51.404Z,7.00
2023-05-25T19:20:19.182Z,9.10
2023-05-25T19:22:46.997Z,7.80
2023-05-25T19:25:14.827Z,9.30
2023-05-25T19:27:42.553Z,6.90
2023-05-25T19:30:10.630Z,8.30
2023-05-25T19:32:38.386Z,8.20
2023-05-25T19:35:07.696Z,9.40
2023-05-25T19:37:37.885Z,9.10
2023-05-25T19:40:09.108Z,8.10
2023-05-25T19:42:37.324Z,8.00
2023-05-25T19:45:05.947Z,7.70
2023-05-25T19:47:33.680Z,11.30
2023-05-25T19:50:01.832Z,7.80
2023-05-25T19:52:29.493Z,9.80
2023-05-25T19:54:57.136Z,7.50
2023-05-25T19:57:27.065Z,8.30
2023-05-25T19:59:54.790Z,8.30
2023-05-25T20:02:22.513Z,7.90
2023-05-25T20:04:50.228Z,9.10
2023-05-25T20:07:21.215Z,10.00
2023-05-25T20:09:49.521Z,9.10
2023-05-25T20:12:17.319Z,9.40
2023-05-25T20:14:44.942Z,7.30
2023-05-25T20:17:12.625Z,7.80
2023-05-25T20:19:40.348Z,7.90
2023-05-25T20:22:08.547Z,8.40
2023-05-25T20:24:36.327Z,7.70
2023-05-25T20:27:06.311Z,8.40
2023-05-25T20:29:34.118Z,7.40
2023-05-25T20:32:02.175Z,9.00
2023-05-25T20:34:29.910Z,9.00
2023-05-25T20:36:57.511Z,8.60
2023-05-25T20:39:26.289Z,9.90
2023-05-25T20:41:54.056Z,10.70
2023-05-25T20:44:21.809Z,8.50
2023-05-25T20:46:49.471Z,11.00
2023-05-25T20:49:17.148Z,8.90
2023-05-25T20:51:50.121Z,11.00
2023-05-25T20:54:18.143Z,10.30
2023-05-25T20:56:47.734Z,9.50
2023-05-25T20:59:15.449Z,7.80
2023-05-25T21:01:44.633Z,10.10
2023-05-25T21:04:12.358Z,10.20
2023-05-25T21:06:40.315Z,11.30
2023-05-25T21:09:07.978Z,10.50
2023-05-25T21:11:35.671Z,10.10
2023-05-25T21:14:03.588Z,10.50
2023-05-25T21:16:31.408Z,10.80
2023-05-25T21:18:59.225Z,9.50
2023-05-25T21:21:28.352Z,11.30
2023-05-25T21:23:56.081Z,11.10
2023-05-25T21:26:23.738Z,10.10
2023-05-25T21:28:51.355Z,7.50
2023-05-25T21:31:20.530Z,11.60
2023-05-25T21:33:48.376Z,9.40
2023-05-25T21:36:16.082Z,7.00
2023-05-25T21:38:43.772Z,8.40
2023-05-25T21:41:11.545Z,7.90
2023-05-25T21:43:39.266Z,8.20
2023-05-25T21:46:06.989Z,9.80
2023-05-25T21:48:34.708Z,7.20
2023-05-25T21:51:02.482Z,11.00
2023-05-25T21:53:30.153Z,10.50
2023-05-25T21:55:57.826Z,10.40
2023-05-25T21:58:25.671Z,8.70
2023-05-25T22:00:53.393Z,10.10
2023-05-25T22:03:21.525Z,8.90
2023-05-25T22:05:49.323Z,10.60
2023-05-25T22:08:16.956Z,9.30
2023-05-25T22:10:44.648Z,11.40
2023-05-25T22:13:12.316Z,9.90
2023-05-25T22:15:39.985Z,11.10
2023-05-25T22:18:07.894Z,10.60
2023-05-25T22:20:38.753Z,8.50
2023-05-25T22:23:06.479Z,8.60
2023-05-25T22:25:34.249Z,10.80
2023-05-25T22:28:01.992Z,12.40
2023-05-25T22:30:29.722Z,8.90
2023-05-25T22:32:57.464Z,10.00
2023-05-25T22:35:25.236Z,11.40
2023-05-25T22:37:52.888Z,10.80
2023-05-25T22:40:20.685Z,11.50
2023-05-25T22:42:50.563Z,11.60
2023-05-25T22:45:18.466Z,9.70
2023-05-25T22:47:46.289Z,11.00
2023-05-25T22:50:14.046Z,8.90
2023-05-25T22:52:41.773Z,11.70
2023-05-25T22:55:09.637Z,12.40
2023-05-25T22:57:37.284Z,12.00
2023-05-25T23:00:05.936Z,12.40
2023-05-25T23:02:33.977Z,9.90
2023-05-25T23:05:01.792Z,11.40
2023-05-25T23:07:29.449Z,11.20
2023-05-25T23:09:57.278Z,12.50
2023-05-25T23:12:25.079Z,11.00
2023-05-25T23:14:53.684Z,8.70
2023-05-25T23:17:21.755Z,11.50
2023-05-25T23:19:49.550Z,11.70
2023-05-25T23:22:17.217Z,12.90
2023-05-25T23:24:44.946Z,11.90
2023-05-25T23:27:12.678Z,9.70
2023-05-25T23:29:40.419Z,11.80
2023-05-25T23:32:08.203Z,8.70
2023-05-25T23:34:36.044Z,8.80
2023-05-25T23:37:06.315Z,10.30
2023-05-25T23:39:34.360Z,13.80
2023-05-25T23:42:02.566Z,12.50
2023-05-25T23:44:30.334Z,12.60
2023-05-25T23:46:58.164Z,10.10
2023-05-25T23:49:25.871Z,10.90
2023-05-25T23:51:53.531Z,13.60
2023-05-25T23:54:21.263Z,13.60
2023-05-25T23:56:48.988Z,13.40
2023-05-25T23:59:16.649Z,13.30
